createdAt,value
2018-11-13T00:00:59.755Z,11.1
2018-11-13T00:02:09.175Z,11.1
2018-11-13T00:03:14.959Z,11.1
2018-11-13T00:04:18.578Z,11.1
2018-11-13T00:05:35.397Z,11.1
2018-11-13T00:06:42.679Z,11.1
2018-11-13T00:07:44.794Z,11.1
2018-11-13T00:08:46.819Z,11.1
2018-11-13T00:09:48.833Z,11.1
2018-11-13T00:10:50.856Z,11.1
2018-11-13T00:11:52.884Z,11.1
2018-11-13T00:12:54.905Z,11.1
2018-11-13T00:13:57.645Z,11.1
2018-11-13T00:14:59.666Z,11.1
2018-11-13T00:16:01.684Z,11.1
2018-11-13T00:17:04.008Z,11.1
2018-11-13T00:18:06.026Z,11.1
2018-11-13T00:19:08.048Z,11.1
2018-11-13T00:20:10.359Z,11
2018-11-13T00:21:12.368Z,11.1
2018-11-13T00:22:14.397Z,11.1
2018-11-13T00:23:16.422Z,11.1
2018-11-13T00:24:18.453Z,11.1
2018-11-13T00:25:20.465Z,11.1
2018-11-13T00:26:22.498Z,11.1
2018-11-13T00:27:24.547Z,11
2018-11-13T00:28:27.144Z,11
2018-11-13T00:29:29.302Z,11
2018-11-13T00:30:31.189Z,11
2018-11-13T00:31:33.214Z,11
2018-11-13T00:32:35.233Z,11
2018-11-13T00:33:37.563Z,11
2018-11-13T00:34:39.724Z,11
2018-11-13T00:35:41.749Z,11
2018-11-13T00:36:43.780Z,10.9
2018-11-13T00:37:45.793Z,10.9
2018-11-13T00:38:48.116Z,10.9
2018-11-13T00:39:50.195Z,10.9
2018-11-13T00:40:52.888Z,10.9
2018-11-13T00:41:54.912Z,10.9
2018-11-13T00:42:56.950Z,10.9
2018-11-13T00:43:59.257Z,10.9
2018-11-13T00:45:01.285Z,10.8
2018-11-13T00:46:03.813Z,10.8
2018-11-13T00:47:06.193Z,10.8
2018-11-13T00:48:08.654Z,10.8
2018-11-13T00:49:10.621Z,10.8
2018-11-13T00:50:12.651Z,10.8
2018-11-13T00:51:14.952Z,10.8
2018-11-13T00:52:16.976Z,10.8
2018-11-13T00:53:19.398Z,10.8
2018-11-13T00:54:21.409Z,10.7
2018-11-13T00:55:23.437Z,10.7
2018-11-13T00:56:25.460Z,10.7
2018-11-13T00:57:27.485Z,10.7
2018-11-13T00:58:29.501Z,10.6
2018-11-13T00:59:33.209Z,10.7
2018-11-13T01:00:35.208Z,10.7
2018-11-13T01:01:37.225Z,10.7
2018-11-13T01:02:39.264Z,10.6
2018-11-13T01:03:41.870Z,10.6
2018-11-13T01:04:44.196Z,10.6
2018-11-13T01:05:46.678Z,10.6
2018-11-13T01:06:48.644Z,10.6
2018-11-13T01:07:52.698Z,10.6
2018-11-13T01:08:54.719Z,10.6
2018-11-13T01:09:57.136Z,10.5
2018-11-13T01:10:59.152Z,10.6
2018-11-13T01:12:01.185Z,10.5
2018-11-13T01:13:03.213Z,10.5
2018-11-13T01:14:05.246Z,10.5
2018-11-13T01:15:07.860Z,10.4
2018-11-13T01:16:11.367Z,10.5
2018-11-13T01:17:13.426Z,10.4
2018-11-13T01:18:15.409Z,10.4
2018-11-13T01:19:17.428Z,10.4
2018-11-13T01:20:19.444Z,10.4
2018-11-13T01:21:21.846Z,10.4
2018-11-13T01:22:23.897Z,10.4
2018-11-13T01:23:26.648Z,10.4
2018-11-13T01:24:28.678Z,10.4
2018-11-13T01:25:30.705Z,10.4
2018-11-13T01:26:32.731Z,10.4
2018-11-13T01:27:35.048Z,10.4
2018-11-13T01:28:37.062Z,10.4
2018-11-13T01:29:39.089Z,10.4
2018-11-13T01:30:41.103Z,10.3
2018-11-13T01:31:43.136Z,10.3
2018-11-13T01:32:45.156Z,10.3
2018-11-13T01:33:47.463Z,10.3
2018-11-13T01:34:49.486Z,10.3
2018-11-13T01:35:51.883Z,10.2
2018-11-13T01:36:53.916Z,10.2
2018-11-13T01:37:55.946Z,10.3
2018-11-13T01:38:58.299Z,10.3
2018-11-13T01:40:00.316Z,10.3
2018-11-13T01:41:02.631Z,10.2
2018-11-13T01:42:04.652Z,10.2
2018-11-13T01:43:06.959Z,10.2
2018-11-13T01:44:08.990Z,10.3
2018-11-13T01:45:11.005Z,10.2
2018-11-13T01:46:13.308Z,10.2
2018-11-13T01:47:15.629Z,10.2
2018-11-13T01:48:17.654Z,10.2
2018-11-13T01:49:19.677Z,10.2
2018-11-13T01:50:21.695Z,10.2
2018-11-13T01:51:23.715Z,10.2
2018-11-13T01:52:25.736Z,10.2
2018-11-13T01:53:27.769Z,10.2
2018-11-13T01:54:31.794Z,10.2
2018-11-13T01:55:33.557Z,10.2
2018-11-13T01:56:35.593Z,10.2
2018-11-13T01:57:37.991Z,10.2
2018-11-13T01:58:40.014Z,10.1
2018-11-13T01:59:42.033Z,10.1
2018-11-13T02:00:44.078Z,10.1
2018-11-13T02:01:46.479Z,10.1
2018-11-13T02:02:48.786Z,10.1
2018-11-13T02:03:50.806Z,10.1
2018-11-13T02:04:53.125Z,10.1
2018-11-13T02:05:55.526Z,10.1
2018-11-13T02:06:57.829Z,10.1
2018-11-13T02:07:59.849Z,10.1
2018-11-13T02:09:01.869Z,10.1
2018-11-13T02:10:03.897Z,10.1
2018-11-13T02:11:05.918Z,10.1
2018-11-13T02:12:08.236Z,10.1
2018-11-13T02:13:10.914Z,10.1
2018-11-13T02:14:12.950Z,10.1
2018-11-13T02:15:14.972Z,10.1
2018-11-13T02:16:16.984Z,10.1
2018-11-13T02:17:19.019Z,10.1
2018-11-13T02:18:21.032Z,10.1
2018-11-13T02:19:23.055Z,10.1
2018-11-13T02:20:25.367Z,10.1
2018-11-13T02:21:27.388Z,10.1
2018-11-13T02:22:29.397Z,10.1
2018-11-13T02:23:31.422Z,10.1
2018-11-13T02:24:33.830Z,10.1
2018-11-13T02:25:35.858Z,10.1
2018-11-13T02:26:37.893Z,10
2018-11-13T02:27:39.918Z,10
2018-11-13T02:28:41.938Z,10
2018-11-13T02:29:44.354Z,10
2018-11-13T02:30:47.050Z,10
2018-11-13T02:31:49.068Z,10
2018-11-13T02:32:51.098Z,10
2018-11-13T02:33:53.111Z,10
2018-11-13T02:34:55.443Z,10
2018-11-13T02:35:57.462Z,10
2018-11-13T02:36:59.876Z,10
2018-11-13T02:38:01.908Z,10
2018-11-13T02:39:04.884Z,9.9
2018-11-13T02:40:06.909Z,9.9
2018-11-13T02:41:08.926Z,10
2018-11-13T02:42:10.943Z,10
2018-11-13T02:43:13.658Z,9.9
2018-11-13T02:44:15.680Z,10
2018-11-13T02:45:17.716Z,9.9
2018-11-13T02:46:19.721Z,9.9
2018-11-13T02:47:23.645Z,9.9
2018-11-13T02:48:26.727Z,9.9
2018-11-13T02:49:28.742Z,9.9
2018-11-13T02:50:30.806Z,9.9
2018-11-13T02:51:33.099Z,9.9
2018-11-13T02:52:35.124Z,9.9
2018-11-13T02:53:37.155Z,9.9
2018-11-13T02:54:39.493Z,9.9
2018-11-13T02:55:41.508Z,9.9
2018-11-13T02:56:44.208Z,9.9
2018-11-13T02:57:46.609Z,9.9
2018-11-13T02:58:49.256Z,9.8
2018-11-13T02:59:51.284Z,9.8
2018-11-13T03:00:53.312Z,9.8
2018-11-13T03:01:55.328Z,9.8
2018-11-13T03:02:57.359Z,9.8
2018-11-13T03:03:59.379Z,9.8
2018-11-13T03:05:01.686Z,9.8
2018-11-13T03:06:03.708Z,9.8
2018-11-13T03:07:06.027Z,9.8
2018-11-13T03:08:08.622Z,9.8
2018-11-13T03:09:10.640Z,9.9
2018-11-13T03:10:12.673Z,9.8
2018-11-13T03:11:14.686Z,9.8
2018-11-13T03:12:16.722Z,9.8
2018-11-13T03:13:18.749Z,9.8
2018-11-13T03:14:21.060Z,9.8
2018-11-13T03:15:23.090Z,9.8
2018-11-13T03:16:25.520Z,9.7
2018-11-13T03:17:27.547Z,9.7
2018-11-13T03:18:29.861Z,9.8
2018-11-13T03:19:32.834Z,9.8
2018-11-13T03:20:35.160Z,9.8
2018-11-13T03:21:37.180Z,9.8
2018-11-13T03:22:39.488Z,9.8
2018-11-13T03:23:41.523Z,9.8
2018-11-13T03:24:43.536Z,9.8
2018-11-13T03:25:45.845Z,9.8
2018-11-13T03:26:47.880Z,9.8
2018-11-13T03:27:49.900Z,9.7
2018-11-13T03:28:52.195Z,9.7
2018-11-13T03:29:54.223Z,9.7
2018-11-13T03:30:57.107Z,9.8
2018-11-13T03:31:59.354Z,9.7
2018-11-13T03:33:01.389Z,9.8
2018-11-13T03:34:04.303Z,9.7
2018-11-13T03:35:06.889Z,9.7
2018-11-13T03:36:09.990Z,9.7
2018-11-13T03:37:12.302Z,9.7
2018-11-13T03:38:14.324Z,9.7
2018-11-13T03:39:16.651Z,9.7
2018-11-13T03:40:18.969Z,9.7
2018-11-13T03:41:21.277Z,9.7
2018-11-13T03:42:23.609Z,9.7
2018-11-13T03:43:25.636Z,9.7
2018-11-13T03:44:27.649Z,9.7
2018-11-13T03:45:29.970Z,9.6
2018-11-13T03:46:31.983Z,9.7
2018-11-13T03:47:34.009Z,9.7
2018-11-13T03:48:36.046Z,9.7
2018-11-13T03:49:38.056Z,9.7
2018-11-13T03:50:40.370Z,9.7
2018-11-13T03:51:42.386Z,9.7
2018-11-13T03:52:45.021Z,9.6
2018-11-13T03:53:47.035Z,9.6
2018-11-13T03:54:49.057Z,9.6
2018-11-13T03:55:51.373Z,9.6
2018-11-13T03:56:53.387Z,9.6
2018-11-13T03:57:55.417Z,9.6
2018-11-13T03:58:57.439Z,9.7
2018-11-13T03:59:59.758Z,9.6
2018-11-13T04:01:02.085Z,9.6
2018-11-13T04:02:04.152Z,9.6
2018-11-13T04:03:06.758Z,9.6
2018-11-13T04:04:09.753Z,9.6
2018-11-13T04:05:12.056Z,9.6
2018-11-13T04:06:14.348Z,9.6
2018-11-13T04:07:16.380Z,9.6
2018-11-13T04:08:19.085Z,9.6
2018-11-13T04:09:21.375Z,9.6
2018-11-13T04:10:23.405Z,9.6
2018-11-13T04:11:26.026Z,9.6
2018-11-13T04:12:28.611Z,9.5
2018-11-13T04:13:30.937Z,9.6
2018-11-13T04:14:32.965Z,9.5
2018-11-13T04:15:35.275Z,9.6
2018-11-13T04:16:37.576Z,9.6
2018-11-13T04:17:39.898Z,9.6
2018-11-13T04:18:41.914Z,9.5
2018-11-13T04:19:43.937Z,9.6
2018-11-13T04:20:45.960Z,9.6
2018-11-13T04:21:47.971Z,9.6
2018-11-13T04:22:50.598Z,9.6
2018-11-13T04:23:52.906Z,9.6
2018-11-13T04:24:54.937Z,9.5
2018-11-13T04:25:57.229Z,9.5
2018-11-13T04:26:59.266Z,9.5
2018-11-13T04:28:01.590Z,9.5
2018-11-13T04:29:03.602Z,9.5
2018-11-13T04:30:05.924Z,9.5
2018-11-13T04:31:07.940Z,9.5
2018-11-13T04:32:09.965Z,9.5
2018-11-13T04:33:11.982Z,9.5
2018-11-13T04:34:14.002Z,9.5
2018-11-13T04:35:16.034Z,9.5
2018-11-13T04:36:18.441Z,9.5
2018-11-13T04:37:20.773Z,9.5
2018-11-13T04:38:23.183Z,9.5
2018-11-13T04:39:25.195Z,9.5
2018-11-13T04:40:27.217Z,9.5
2018-11-13T04:41:29.252Z,9.5
2018-11-13T04:42:31.269Z,9.5
2018-11-13T04:43:33.297Z,9.5
2018-11-13T04:44:36.300Z,9.5
2018-11-13T04:45:38.325Z,9.5
2018-11-13T04:46:40.353Z,9.5
2018-11-13T04:47:42.951Z,9.5
2018-11-13T04:48:44.974Z,9.6
2018-11-13T04:49:46.998Z,9.6
2018-11-13T04:50:49.328Z,9.5
2018-11-13T04:51:51.634Z,9.5
2018-11-13T04:52:54.227Z,9.5
2018-11-13T04:53:56.533Z,9.5
2018-11-13T04:54:58.545Z,9.5
2018-11-13T04:56:00.576Z,9.5
2018-11-13T04:57:03.200Z,9.5
2018-11-13T04:58:05.234Z,9.5
2018-11-13T04:59:07.913Z,9.5
2018-11-13T05:00:09.944Z,9.5
2018-11-13T05:01:12.250Z,9.5
2018-11-13T05:02:14.853Z,9.5
2018-11-13T05:03:16.882Z,9.5
2018-11-13T05:04:18.891Z,9.5
2018-11-13T05:05:21.300Z,9.5
2018-11-13T05:06:23.639Z,9.5
2018-11-13T05:07:25.661Z,9.5
2018-11-13T05:08:27.678Z,9.5
2018-11-13T05:09:29.700Z,9.5
2018-11-13T05:10:31.726Z,9.5
2018-11-13T05:11:33.749Z,9.5
2018-11-13T05:12:35.779Z,9.5
2018-11-13T05:13:38.100Z,9.5
2018-11-13T05:14:40.807Z,9.5
2018-11-13T05:15:42.815Z,9.5
2018-11-13T05:16:45.136Z,9.5
2018-11-13T05:17:47.150Z,9.4
2018-11-13T05:18:49.558Z,9.5
2018-11-13T05:19:51.590Z,9.5
2018-11-13T05:20:53.605Z,9.5
2018-11-13T05:21:55.911Z,9.5
2018-11-13T05:22:58.374Z,9.5
2018-11-13T05:24:00.382Z,9.5
2018-11-13T05:25:02.396Z,9.5
2018-11-13T05:26:04.424Z,9.5
2018-11-13T05:27:06.449Z,9.5
2018-11-13T05:28:08.462Z,9.4
2018-11-13T05:29:10.498Z,9.4
2018-11-13T05:30:12.521Z,9.4
2018-11-13T05:31:14.551Z,9.4
2018-11-13T05:32:16.558Z,9.4
2018-11-13T05:33:18.877Z,9.4
2018-11-13T05:34:20.904Z,9.4
2018-11-13T05:35:22.918Z,9.4
2018-11-13T05:36:25.231Z,9.4
2018-11-13T05:37:27.526Z,9.4
2018-11-13T05:38:29.836Z,9.4
2018-11-13T05:39:31.869Z,9.4
2018-11-13T05:40:34.177Z,9.4
2018-11-13T05:41:36.283Z,9.4
2018-11-13T05:42:38.211Z,9.4
2018-11-13T05:43:40.229Z,9.4
2018-11-13T05:44:42.256Z,9.4
2018-11-13T05:45:44.871Z,9.4
2018-11-13T05:46:46.888Z,9.4
2018-11-13T05:47:48.909Z,9.4
2018-11-13T05:48:50.923Z,9.4
2018-11-13T05:49:52.955Z,9.4
2018-11-13T05:50:55.258Z,9.4
2018-11-13T05:51:57.281Z,9.4
2018-11-13T05:52:59.312Z,9.4
2018-11-13T05:54:01.328Z,9.4
2018-11-13T05:55:03.379Z,9.4
2018-11-13T05:56:05.683Z,9.4
2018-11-13T05:57:07.714Z,9.4
2018-11-13T05:58:09.727Z,9.4
2018-11-13T05:59:12.045Z,9.4
2018-11-13T06:00:14.057Z,9.4
2018-11-13T06:01:16.068Z,9.4
2018-11-13T06:02:18.389Z,9.4
2018-11-13T06:03:20.413Z,9.4
2018-11-13T06:04:22.441Z,9.4
2018-11-13T06:05:24.454Z,9.4
2018-11-13T06:06:26.488Z,9.4
2018-11-13T06:07:28.507Z,9.4
2018-11-13T06:08:31.481Z,9.4
2018-11-13T06:09:33.436Z,9.4
2018-11-13T06:10:35.444Z,9.4
2018-11-13T06:11:37.467Z,9.4
2018-11-13T06:12:39.498Z,9.4
2018-11-13T06:13:41.523Z,9.4
2018-11-13T06:14:43.828Z,9.4
2018-11-13T06:15:46.140Z,9.4
2018-11-13T06:16:48.162Z,9.4
2018-11-13T06:17:50.181Z,9.4
2018-11-13T06:18:52.218Z,9.4
2018-11-13T06:19:54.238Z,9.4
2018-11-13T06:20:56.554Z,9.4
2018-11-13T06:21:58.877Z,9.4
2018-11-13T06:23:00.920Z,9.4
2018-11-13T06:24:03.692Z,9.4
2018-11-13T06:25:05.712Z,9.4
2018-11-13T06:26:07.724Z,9.4
2018-11-13T06:27:09.764Z,9.4
2018-11-13T06:28:12.069Z,9.4
2018-11-13T06:29:14.487Z,9.4
2018-11-13T06:30:16.496Z,9.5
2018-11-13T06:31:18.818Z,9.5
2018-11-13T06:32:20.841Z,9.4
2018-11-13T06:33:23.148Z,9.5
2018-11-13T06:34:25.464Z,9.5
2018-11-13T06:35:27.759Z,9.5
2018-11-13T06:36:30.071Z,9.5
2018-11-13T06:37:32.082Z,9.5
2018-11-13T06:38:34.183Z,9.5
2018-11-13T06:39:36.133Z,9.5
2018-11-13T06:40:38.155Z,9.5
2018-11-13T06:41:40.181Z,9.5
2018-11-13T06:42:42.199Z,9.5
2018-11-13T06:43:44.229Z,9.5
2018-11-13T06:44:46.246Z,9.5
2018-11-13T06:45:48.545Z,9.5
2018-11-13T06:46:50.564Z,9.5
2018-11-13T06:47:52.598Z,9.5
2018-11-13T06:48:54.923Z,9.5
2018-11-13T06:49:57.302Z,9.5
2018-11-13T06:50:59.603Z,9.5
2018-11-13T06:52:01.619Z,9.5
2018-11-13T06:53:04.219Z,9.5
2018-11-13T06:54:06.245Z,9.5
2018-11-13T06:55:08.260Z,9.5
2018-11-13T06:56:10.289Z,9.6
2018-11-13T06:57:12.697Z,9.6
2018-11-13T06:58:14.719Z,9.6
2018-11-13T06:59:17.053Z,9.6
2018-11-13T07:00:19.455Z,9.5
2018-11-13T07:01:21.481Z,9.5
2018-11-13T07:02:23.778Z,9.5
2018-11-13T07:03:26.126Z,9.6
2018-11-13T07:04:28.545Z,9.6
2018-11-13T07:05:30.570Z,9.6
2018-11-13T07:06:32.595Z,9.6
2018-11-13T07:07:34.629Z,9.6
2018-11-13T07:08:37.030Z,9.6
2018-11-13T07:09:39.329Z,9.6
2018-11-13T07:10:41.947Z,9.6
2018-11-13T07:11:43.938Z,9.6
2018-11-13T07:12:46.337Z,9.6
2018-11-13T07:13:48.359Z,9.6
2018-11-13T07:14:50.669Z,9.6
2018-11-13T07:15:52.688Z,9.6
2018-11-13T07:16:54.720Z,9.6
2018-11-13T07:17:56.746Z,9.6
2018-11-13T07:18:58.764Z,9.6
2018-11-13T07:20:00.784Z,9.6
2018-11-13T07:21:03.128Z,9.6
2018-11-13T07:22:05.151Z,9.6
2018-11-13T07:23:07.175Z,9.6
2018-11-13T07:24:09.582Z,9.7
2018-11-13T07:25:11.680Z,9.6
2018-11-13T07:26:13.617Z,9.6
2018-11-13T07:27:16.098Z,9.6
2018-11-13T07:28:18.411Z,9.6
2018-11-13T07:29:20.433Z,9.6
2018-11-13T07:30:22.757Z,9.6
2018-11-13T07:31:24.842Z,9.6
2018-11-13T07:32:26.815Z,9.6
2018-11-13T07:33:28.835Z,9.6
2018-11-13T07:34:31.532Z,9.6
2018-11-13T07:35:33.699Z,9.7
2018-11-13T07:36:36.028Z,9.7
2018-11-13T07:37:38.334Z,9.7
2018-11-13T07:38:40.358Z,9.7
2018-11-13T07:39:42.379Z,9.7
2018-11-13T07:40:44.392Z,9.7
2018-11-13T07:41:46.425Z,9.7
2018-11-13T07:42:48.832Z,9.7
2018-11-13T07:43:50.854Z,9.7
2018-11-13T07:44:52.865Z,9.7
2018-11-13T07:45:54.899Z,9.7
2018-11-13T07:46:57.267Z,9.7
2018-11-13T07:47:59.854Z,9.7
2018-11-13T07:49:01.816Z,9.7
2018-11-13T07:50:03.825Z,9.7
2018-11-13T07:51:05.926Z,9.7
2018-11-13T07:52:07.876Z,9.7
2018-11-13T07:53:09.899Z,9.7
2018-11-13T07:54:11.909Z,9.7
2018-11-13T07:55:14.293Z,9.7
2018-11-13T07:56:16.317Z,9.7
2018-11-13T07:57:18.621Z,9.7
2018-11-13T07:58:20.981Z,9.7
2018-11-13T07:59:22.987Z,9.8
2018-11-13T08:00:25.293Z,9.8
2018-11-13T08:01:27.711Z,9.8
2018-11-13T08:02:29.723Z,9.8
2018-11-13T08:03:31.760Z,9.8
2018-11-13T08:04:33.769Z,9.8
2018-11-13T08:05:35.803Z,9.8
2018-11-13T08:06:38.726Z,9.8
2018-11-13T08:07:40.677Z,9.8
2018-11-13T08:08:42.710Z,9.8
2018-11-13T08:09:45.595Z,9.8
2018-11-13T08:10:47.627Z,9.8
2018-11-13T08:11:50.242Z,9.8
2018-11-13T08:12:52.300Z,9.8
2018-11-13T08:13:54.298Z,9.8
2018-11-13T08:14:56.309Z,9.8
2018-11-13T08:15:58.730Z,9.8
2018-11-13T08:17:01.133Z,9.9
2018-11-13T08:18:03.490Z,9.9
2018-11-13T08:19:05.510Z,9.9
2018-11-13T08:20:07.814Z,9.9
2018-11-13T08:21:09.928Z,9.9
2018-11-13T08:22:12.001Z,9.9
2018-11-13T08:23:14.338Z,9.9
2018-11-13T08:24:16.354Z,9.9
2018-11-13T08:25:19.230Z,9.9
2018-11-13T08:26:22.140Z,9.9
2018-11-13T08:27:24.077Z,9.9
2018-11-13T08:28:26.652Z,9.9
2018-11-13T08:29:28.710Z,9.9
2018-11-13T08:30:30.602Z,9.9
2018-11-13T08:31:33.088Z,9.9
2018-11-13T08:32:35.055Z,9.9
2018-11-13T08:33:37.352Z,10
2018-11-13T08:34:39.442Z,10
2018-11-13T08:35:41.462Z,10
2018-11-13T08:36:43.428Z,10
2018-11-13T08:37:45.836Z,10
2018-11-13T08:38:47.849Z,10
2018-11-13T08:39:49.874Z,10
2018-11-13T08:40:51.914Z,10
2018-11-13T08:41:53.945Z,10
2018-11-13T08:42:55.962Z,10
2018-11-13T08:43:57.999Z,10
2018-11-13T08:45:00.026Z,10.1
2018-11-13T08:46:02.347Z,10.1
2018-11-13T08:47:04.381Z,10
2018-11-13T08:48:06.393Z,10
2018-11-13T08:49:08.701Z,10.1
2018-11-13T08:50:10.792Z,10.1
2018-11-13T08:51:12.763Z,10.1
2018-11-13T08:52:15.068Z,10.1
2018-11-13T08:53:17.086Z,10.1
2018-11-13T08:54:19.113Z,10.1
2018-11-13T08:55:21.438Z,10.1
2018-11-13T08:56:23.476Z,10.1
2018-11-13T08:57:25.498Z,10.1
2018-11-13T08:58:27.541Z,10.1
2018-11-13T08:59:29.636Z,10.1
2018-11-13T09:00:31.583Z,10.1
2018-11-13T09:01:33.991Z,10.1
2018-11-13T09:02:36.014Z,10.2
2018-11-13T09:03:38.040Z,10.2
2018-11-13T09:04:40.049Z,10.2
2018-11-13T09:05:42.073Z,10.2
2018-11-13T09:06:44.386Z,10.2
2018-11-13T09:07:46.399Z,10.2
2018-11-13T09:08:48.430Z,10.2
2018-11-13T09:09:50.450Z,10.2
2018-11-13T09:10:52.475Z,10.2
2018-11-13T09:11:54.597Z,10.2
2018-11-13T09:12:56.524Z,10.2
2018-11-13T09:13:58.829Z,10.2
2018-11-13T09:15:01.431Z,10.2
2018-11-13T09:16:03.464Z,10.2
2018-11-13T09:17:05.481Z,10.2
2018-11-13T09:18:07.583Z,10.2
2018-11-13T09:19:10.199Z,10.3
2018-11-13T09:20:12.096Z,10.3
2018-11-13T09:21:14.518Z,10.3
2018-11-13T09:22:16.928Z,10.3
2018-11-13T09:23:18.963Z,10.3
2018-11-13T09:24:21.300Z,10.4
2018-11-13T09:25:23.336Z,10.4
2018-11-13T09:26:25.641Z,10.4
2018-11-13T09:27:27.662Z,10.4
2018-11-13T09:28:29.699Z,10.4
2018-11-13T09:29:32.002Z,10.5
2018-11-13T09:30:34.252Z,10.5
2018-11-13T09:31:36.511Z,10.5
2018-11-13T09:32:38.486Z,10.5
2018-11-13T09:33:41.497Z,10.5
2018-11-13T09:34:43.828Z,10.6
2018-11-13T09:35:45.855Z,10.6
2018-11-13T09:36:47.878Z,10.6
2018-11-13T09:37:49.893Z,10.6
2018-11-13T09:38:51.921Z,10.6
2018-11-13T09:39:53.948Z,10.7
2018-11-13T09:40:55.959Z,10.7
2018-11-13T09:41:57.985Z,10.8
2018-11-13T09:43:00.009Z,10.8
2018-11-13T09:44:02.415Z,10.8
2018-11-13T09:45:04.448Z,10.8
2018-11-13T09:46:07.592Z,10.8
2018-11-13T09:47:10.723Z,10.9
2018-11-13T09:48:12.745Z,10.9
2018-11-13T09:49:14.791Z,10.9
2018-11-13T09:50:17.071Z,11
2018-11-13T09:51:19.101Z,11
2018-11-13T09:52:21.127Z,11
2018-11-13T09:53:23.190Z,11.1
2018-11-13T09:54:25.175Z,11.1
2018-11-13T09:55:27.538Z,11.1
2018-11-13T09:56:29.601Z,11
2018-11-13T09:57:31.938Z,11.1
2018-11-13T09:58:34.302Z,11.1
2018-11-13T09:59:36.310Z,11
2018-11-13T10:00:38.535Z,11
2018-11-13T10:01:41.336Z,11
2018-11-13T10:02:43.651Z,11
2018-11-13T10:03:45.686Z,11.1
2018-11-13T10:04:47.905Z,11.1
2018-11-13T10:05:49.212Z,11.1
2018-11-13T10:06:52.078Z,11.1
2018-11-13T10:07:54.399Z,11.1
2018-11-13T10:08:56.424Z,11.1
2018-11-13T10:09:58.456Z,11.1
2018-11-13T10:11:00.774Z,11.1
2018-11-13T10:12:02.798Z,11.2
2018-11-13T10:13:04.830Z,11.2
2018-11-13T10:14:06.850Z,11.2
2018-11-13T10:15:09.165Z,11.2
2018-11-13T10:16:11.189Z,11.2
2018-11-13T10:17:13.284Z,11.2
2018-11-13T10:18:15.895Z,11.3
2018-11-13T10:19:17.772Z,11.3
2018-11-13T10:20:19.991Z,11.3
2018-11-13T10:21:22.124Z,11.2
2018-11-13T10:22:24.545Z,11.2
2018-11-13T10:23:26.852Z,11.2
2018-11-13T10:24:28.871Z,11.2
2018-11-13T10:25:31.180Z,11.3
2018-11-13T10:26:33.285Z,11.3
2018-11-13T10:27:35.234Z,11.2
2018-11-13T10:28:37.257Z,11.3
2018-11-13T10:29:39.291Z,11.4
2018-11-13T10:30:41.589Z,11.3
2018-11-13T10:31:44.398Z,11.4
2018-11-13T10:32:46.824Z,11.4
2018-11-13T10:33:49.163Z,11.4
2018-11-13T10:34:51.485Z,11.5
2018-11-13T10:35:53.499Z,11.5
2018-11-13T10:36:55.526Z,11.6
2018-11-13T10:37:57.553Z,11.5
2018-11-13T10:38:59.575Z,11.5
2018-11-13T10:40:02.373Z,11.4
2018-11-13T10:41:04.762Z,11.5
2018-11-13T10:42:06.706Z,11.6
2018-11-13T10:43:08.738Z,11.6
2018-11-13T10:44:11.335Z,11.6
2018-11-13T10:45:13.354Z,11.6
2018-11-13T10:46:15.674Z,11.7
2018-11-13T10:47:17.713Z,11.7
2018-11-13T10:48:20.019Z,11.7
2018-11-13T10:49:22.045Z,11.6
2018-11-13T10:50:25.156Z,11.7
2018-11-13T10:51:27.070Z,11.8
2018-11-13T10:52:29.090Z,11.9
2018-11-13T10:53:31.115Z,11.9
2018-11-13T10:54:33.137Z,11.9
2018-11-13T10:55:35.168Z,12
2018-11-13T10:56:37.301Z,11.9
2018-11-13T10:57:39.505Z,11.9
2018-11-13T10:58:41.826Z,11.9
2018-11-13T10:59:44.226Z,11.8
2018-11-13T11:00:46.261Z,11.9
2018-11-13T11:01:48.679Z,11.8
2018-11-13T11:02:50.848Z,11.9
2018-11-13T11:03:53.114Z,12
2018-11-13T11:04:55.539Z,12
2018-11-13T11:05:57.565Z,11.9
2018-11-13T11:06:59.590Z,11.9
2018-11-13T11:08:01.620Z,11.9
2018-11-13T11:09:04.024Z,11.9
2018-11-13T11:10:06.057Z,11.9
2018-11-13T11:11:08.372Z,12
2018-11-13T11:12:10.708Z,12
2018-11-13T11:13:14.268Z,12
2018-11-13T11:14:16.053Z,12.1
2018-11-13T11:15:18.373Z,12
2018-11-13T11:16:20.398Z,12.1
2018-11-13T11:17:22.434Z,12.1
2018-11-13T11:18:24.457Z,12.2
2018-11-13T11:19:27.575Z,12.3
2018-11-13T11:20:29.411Z,12.3
2018-11-13T11:21:31.722Z,12.4
2018-11-13T11:22:34.065Z,12.3
2018-11-13T11:23:36.152Z,12.4
2018-11-13T11:24:38.088Z,12.5
2018-11-13T11:25:40.118Z,12.6
2018-11-13T11:26:42.172Z,12.6
2018-11-13T11:27:44.178Z,12.5
2018-11-13T11:28:46.188Z,12.5
2018-11-13T11:29:48.222Z,12.5
2018-11-13T11:30:51.084Z,12.5
2018-11-13T11:31:53.067Z,12.5
2018-11-13T11:32:55.102Z,12.4
2018-11-13T11:33:57.117Z,12.5
2018-11-13T11:34:59.146Z,12.5
2018-11-13T11:36:01.170Z,12.5
2018-11-13T11:37:03.209Z,12.4
2018-11-13T11:38:05.225Z,12.4
2018-11-13T11:39:07.331Z,12.5
2018-11-13T11:40:09.290Z,12.5
2018-11-13T11:41:11.603Z,12.5
2018-11-13T11:42:13.639Z,12.6
2018-11-13T11:43:16.334Z,12.6
2018-11-13T11:44:18.422Z,12.6
2018-11-13T11:45:20.386Z,12.5
2018-11-13T11:46:22.424Z,12.5
2018-11-13T11:47:24.742Z,12.5
2018-11-13T11:48:26.768Z,12.5
2018-11-13T11:49:28.796Z,12.5
2018-11-13T11:50:31.103Z,12.5
2018-11-13T11:51:33.130Z,12.5
2018-11-13T11:52:35.164Z,12.5
2018-11-13T11:53:38.154Z,12.5
2018-11-13T11:54:40.164Z,12.4
2018-11-13T11:55:42.196Z,12.5
2018-11-13T11:56:44.222Z,12.5
2018-11-13T11:57:46.544Z,12.4
2018-11-13T11:58:48.564Z,12.4
2018-11-13T11:59:50.976Z,12.4
2018-11-13T12:00:53.173Z,12.4
2018-11-13T12:01:55.040Z,12.4
2018-11-13T12:02:57.058Z,12.4
2018-11-13T12:03:59.366Z,12.4
2018-11-13T12:05:01.393Z,12.4
2018-11-13T12:06:03.421Z,12.4
2018-11-13T12:07:05.439Z,12.4
2018-11-13T12:08:07.469Z,12.4
2018-11-13T12:09:10.071Z,12.4
2018-11-13T12:10:12.392Z,12.4
2018-11-13T12:11:14.408Z,12.4
2018-11-13T12:12:16.508Z,12.5
2018-11-13T12:13:18.763Z,12.5
2018-11-13T12:14:21.060Z,12.4
2018-11-13T12:15:23.772Z,12.4
2018-11-13T12:16:26.083Z,12.4
2018-11-13T12:17:28.103Z,12.4
2018-11-13T12:18:30.564Z,12.4
2018-11-13T12:19:32.811Z,12.4
2018-11-13T12:20:34.630Z,12.4
2018-11-13T12:21:37.124Z,12.4
2018-11-13T12:22:39.100Z,12.5
2018-11-13T12:23:41.115Z,12.6
2018-11-13T12:24:43.154Z,12.5
2018-11-13T12:25:45.221Z,12.5
2018-11-13T12:26:47.204Z,12.5
2018-11-13T12:27:49.239Z,12.5
2018-11-13T12:28:51.591Z,12.5
2018-11-13T12:29:53.624Z,12.6
2018-11-13T12:30:55.660Z,12.6
2018-11-13T12:31:57.681Z,12.6
2018-11-13T12:32:59.733Z,12.6
2018-11-13T12:34:01.753Z,12.6
2018-11-13T12:35:03.793Z,12.6
2018-11-13T12:36:06.007Z,12.7
2018-11-13T12:37:08.030Z,12.7
2018-11-13T12:38:10.349Z,12.7
2018-11-13T12:39:12.362Z,12.7
2018-11-13T12:40:14.400Z,12.7
2018-11-13T12:41:16.429Z,12.7
2018-11-13T12:42:18.749Z,12.6
2018-11-13T12:43:21.046Z,12.6
2018-11-13T12:44:23.386Z,12.6
2018-11-13T12:45:25.427Z,12.6
2018-11-13T12:46:27.550Z,12.5
2018-11-13T12:47:29.878Z,12.6
2018-11-13T12:48:31.913Z,12.6
2018-11-13T12:49:33.941Z,12.5
2018-11-13T12:50:36.357Z,12.6
2018-11-13T12:51:38.380Z,12.5
2018-11-13T12:52:40.808Z,12.5
2018-11-13T12:53:42.826Z,12.5
2018-11-13T12:54:45.135Z,12.5
2018-11-13T12:55:47.714Z,12.5
2018-11-13T12:56:49.663Z,12.5
2018-11-13T12:57:51.689Z,12.5
2018-11-13T12:58:53.720Z,12.5
2018-11-13T12:59:55.736Z,12.5
2018-11-13T13:00:58.161Z,12.4
2018-11-13T13:02:00.592Z,12.4
2018-11-13T13:03:03.185Z,12.4
2018-11-13T13:04:05.612Z,12.4
2018-11-13T13:05:07.632Z,12.4
2018-11-13T13:06:09.661Z,12.4
2018-11-13T13:07:11.962Z,12.4
2018-11-13T13:08:14.000Z,12.4
2018-11-13T13:09:16.014Z,12.4
2018-11-13T13:10:18.341Z,12.4
2018-11-13T13:11:21.329Z,12.4
2018-11-13T13:12:23.345Z,12.4
2018-11-13T13:13:25.380Z,12.4
2018-11-13T13:14:27.409Z,12.4
2018-11-13T13:15:29.440Z,12.4
2018-11-13T13:16:31.462Z,12.4
2018-11-13T13:17:33.500Z,12.4
2018-11-13T13:18:35.523Z,12.4
2018-11-13T13:19:37.543Z,12.5
2018-11-13T13:20:39.581Z,12.4
2018-11-13T13:21:42.487Z,12.5
2018-11-13T13:22:44.453Z,12.4
2018-11-13T13:23:46.474Z,12.4
2018-11-13T13:24:49.092Z,12.5
2018-11-13T13:25:52.496Z,12.5
2018-11-13T13:26:54.476Z,12.5
2018-11-13T13:27:56.503Z,12.5
2018-11-13T13:28:58.591Z,12.5
2018-11-13T13:30:00.896Z,12.5
2018-11-13T13:31:03.211Z,12.4
2018-11-13T13:32:05.241Z,12.4
2018-11-13T13:33:07.263Z,12.4
2018-11-13T13:34:09.580Z,12.4
2018-11-13T13:35:11.605Z,12.4
2018-11-13T13:36:13.630Z,12.4
2018-11-13T13:37:16.336Z,12.4
2018-11-13T13:38:18.747Z,12.4
2018-11-13T13:39:21.060Z,12.3
2018-11-13T13:40:23.081Z,12.3
2018-11-13T13:41:25.116Z,12.3
2018-11-13T13:42:27.179Z,12.3
2018-11-13T13:43:29.165Z,12.3
2018-11-13T13:44:31.192Z,12.3
2018-11-13T13:45:33.208Z,12.3
2018-11-13T13:46:35.309Z,12.3
2018-11-13T13:47:37.277Z,12.2
2018-11-13T13:48:39.597Z,12.2
2018-11-13T13:49:41.613Z,12.2
2018-11-13T13:50:43.655Z,12.2
2018-11-13T13:51:45.680Z,12.2
2018-11-13T13:52:47.695Z,12.1
2018-11-13T13:53:50.216Z,12.2
2018-11-13T13:54:52.593Z,12.2
2018-11-13T13:55:54.625Z,12.1
2018-11-13T13:56:56.654Z,12.1
2018-11-13T13:57:58.683Z,12.1
2018-11-13T13:59:00.699Z,12.1
2018-11-13T14:00:03.596Z,12.1
2018-11-13T14:01:06.142Z,12.2
2018-11-13T14:02:08.129Z,12.1
2018-11-13T14:03:10.169Z,12.1
2018-11-13T14:04:12.191Z,12.1